createdAt,value
2023-03-16T00:00:10.000Z,2.12
2023-03-16T00:01:10.543Z,2.18
2023-03-16T00:02:10.814Z,2.11
2023-03-16T00:03:10.132Z,2.18
2023-03-16T00:04:10.493Z,2.19
2023-03-16T00:05:09.784Z,2.22
2023-03-16T00:06:10.136Z,2.25
2023-03-16T00:07:10.513Z,2.25
2023-03-16T00:08:09.845Z,2.27
2023-03-16T00:09:10.239Z,2.27
2023-03-16T00:10:10.651Z,2.26
2023-03-16T00:11:09.974Z,2.27
2023-03-16T00:12:10.316Z,2.29
2023-03-16T00:13:09.674Z,2.27
2023-03-16T00:14:11.016Z,2.29
2023-03-16T00:15:10.435Z,2.33
2023-03-16T00:16:09.961Z,2.32
2023-03-16T00:17:10.156Z,2.33
2023-03-16T00:18:09.500Z,2.27
2023-03-16T00:19:09.902Z,2.25
2023-03-16T00:20:10.285Z,2.26
2023-03-16T00:21:09.635Z,2.23
2023-03-16T00:22:10.244Z,2.26
2023-03-16T00:23:11.331Z,2.23
2023-03-16T00:24:09.716Z,2.22
2023-03-16T00:25:10.153Z,2.18
2023-03-16T00:26:10.406Z,2.14
2023-03-16T00:27:10.802Z,2.14
2023-03-16T00:28:11.325Z,2.15
2023-03-16T00:29:10.493Z,2.14
2023-03-16T00:30:09.939Z,2.14
2023-03-16T00:31:10.323Z,2.15
2023-03-16T00:32:09.677Z,2.19
2023-03-16T00:33:10.083Z,2.23
2023-03-16T00:34:09.416Z,2.20
2023-03-16T00:35:09.916Z,2.20
2023-03-16T00:36:10.198Z,2.19
2023-03-16T00:37:09.513Z,2.20
2023-03-16T00:38:09.829Z,2.19
2023-03-16T00:39:10.204Z,2.20
2023-03-16T00:40:09.569Z,2.23
2023-03-16T00:41:09.958Z,2.23
2023-03-16T00:42:09.298Z,2.18
2023-03-16T00:43:09.696Z,2.18
2023-03-16T00:44:10.044Z,2.20
2023-03-16T00:45:09.394Z,2.23
2023-03-16T00:46:09.886Z,2.22
2023-03-16T00:47:10.156Z,2.20
2023-03-16T00:48:10.463Z,2.19
2023-03-16T00:49:09.909Z,2.20
2023-03-16T00:50:09.266Z,2.18
2023-03-16T00:51:09.633Z,2.19
2023-03-16T00:52:10.026Z,2.18
2023-03-16T00:53:09.386Z,2.19
2023-03-16T00:54:09.762Z,2.19
2023-03-16T00:55:09.198Z,2.19
2023-03-16T00:56:09.500Z,2.22
2023-03-16T00:57:09.851Z,2.25
2023-03-16T00:58:09.227Z,2.25
2023-03-16T00:59:09.612Z,2.25
2023-03-16T01:00:10.027Z,2.25
2023-03-16T01:01:09.377Z,2.23
2023-03-16T01:02:09.734Z,2.23
2023-03-16T01:03:09.081Z,2.26
2023-03-16T01:04:09.445Z,2.25
2023-03-16T01:05:09.827Z,2.27
2023-03-16T01:06:09.193Z,2.32
2023-03-16T01:07:09.533Z,2.36
2023-03-16T01:08:08.869Z,2.36
2023-03-16T01:09:09.234Z,2.33
2023-03-16T01:10:09.638Z,2.38
2023-03-16T01:11:08.965Z,2.36
2023-03-16T01:12:09.412Z,2.40
2023-03-16T01:13:09.723Z,2.36
2023-03-16T01:14:09.114Z,2.33
2023-03-16T01:15:09.455Z,2.36
2023-03-16T01:16:08.742Z,2.33
2023-03-16T01:17:10.183Z,2.30
2023-03-16T01:18:09.583Z,2.26
2023-03-16T01:19:08.916Z,2.26
2023-03-16T01:20:10.357Z,2.29
2023-03-16T01:21:08.673Z,2.29
2023-03-16T01:22:09.057Z,2.30
2023-03-16T01:23:10.745Z,2.36
2023-03-16T01:24:08.815Z,2.38
2023-03-16T01:25:09.240Z,2.41
2023-03-16T01:26:09.640Z,2.40
2023-03-16T01:27:08.990Z,2.40
2023-03-16T01:28:09.418Z,2.40
2023-03-16T01:29:08.779Z,2.38
2023-03-16T01:30:09.123Z,2.41
2023-03-16T01:31:09.653Z,2.41
2023-03-16T01:32:09.824Z,2.37
2023-03-16T01:33:09.369Z,2.38
2023-03-16T01:34:08.679Z,2.40
2023-03-16T01:35:09.119Z,2.40
2023-03-16T01:36:10.430Z,2.40
2023-03-16T01:37:08.864Z,2.38
2023-03-16T01:38:09.262Z,2.36
2023-03-16T01:39:08.604Z,2.33
2023-03-16T01:40:08.964Z,2.30
2023-03-16T01:41:09.356Z,2.29
2023-03-16T01:42:08.674Z,2.26
2023-03-16T01:43:09.053Z,2.26
2023-03-16T01:44:08.449Z,2.22
2023-03-16T01:45:08.804Z,2.19
2023-03-16T01:46:10.188Z,2.15
2023-03-16T01:47:08.626Z,2.15
2023-03-16T01:48:08.936Z,2.18
2023-03-16T01:49:09.350Z,2.19
2023-03-16T01:50:08.679Z,2.20
2023-03-16T01:51:09.049Z,2.18
2023-03-16T01:52:08.406Z,2.18
2023-03-16T01:53:09.833Z,2.18
2023-03-16T01:54:09.144Z,2.15
2023-03-16T01:55:08.482Z,2.15
2023-03-16T01:56:08.880Z,2.12
2023-03-16T01:57:09.252Z,2.11
2023-03-16T01:58:08.614Z,2.11
2023-03-16T01:59:09.049Z,2.12
2023-03-16T02:00:08.370Z,2.12
2023-03-16T02:01:09.855Z,2.12
2023-03-16T02:02:09.169Z,2.19
2023-03-16T02:03:08.556Z,2.19
2023-03-16T02:04:09.024Z,2.18
2023-03-16T02:05:08.335Z,2.15
2023-03-16T02:06:08.673Z,2.22
2023-03-16T02:07:09.093Z,2.20
2023-03-16T02:08:08.446Z,2.18
2023-03-16T02:09:08.814Z,2.22
2023-03-16T02:10:09.294Z,2.19
2023-03-16T02:11:08.586Z,2.18
2023-03-16T02:12:08.986Z,2.18
2023-03-16T02:13:08.345Z,2.15
2023-03-16T02:14:08.745Z,2.19
2023-03-16T02:15:09.159Z,2.15
2023-03-16T02:16:09.383Z,2.15
2023-03-16T02:17:08.876Z,2.12
2023-03-16T02:18:09.282Z,2.11
2023-03-16T02:19:08.626Z,2.12
2023-03-16T02:20:07.951Z,2.12
2023-03-16T02:21:08.381Z,2.12
2023-03-16T02:22:08.880Z,2.14
2023-03-16T02:23:10.269Z,2.20
2023-03-16T02:24:08.612Z,2.12
2023-03-16T02:25:07.978Z,2.09
2023-03-16T02:26:08.409Z,2.14
2023-03-16T02:27:08.807Z,2.14
2023-03-16T02:28:08.830Z,2.18
2023-03-16T02:29:08.585Z,2.15
2023-03-16T02:30:08.985Z,2.18
2023-03-16T02:31:09.339Z,2.20
2023-03-16T02:32:08.796Z,2.22
2023-03-16T02:33:09.244Z,2.20
2023-03-16T02:34:10.614Z,2.19
2023-03-16T02:35:07.890Z,2.19
2023-03-16T02:36:08.314Z,2.18
2023-03-16T02:37:08.702Z,2.18
2023-03-16T02:38:08.065Z,2.23
2023-03-16T02:39:08.524Z,2.20
2023-03-16T02:40:12.003Z,2.19
2023-03-16T02:41:08.241Z,2.18
2023-03-16T02:42:08.643Z,2.20
2023-03-16T02:43:09.046Z,2.20
2023-03-16T02:44:09.495Z,2.15
2023-03-16T02:45:09.843Z,2.18
2023-03-16T02:46:08.217Z,2.18
2023-03-16T02:47:10.680Z,2.19
2023-03-16T02:48:07.961Z,2.18
2023-03-16T02:49:08.350Z,2.15
2023-03-16T02:50:07.765Z,2.18
2023-03-16T02:51:10.134Z,2.19
2023-03-16T02:52:09.578Z,2.19
2023-03-16T02:53:08.918Z,2.19
2023-03-16T02:54:08.256Z,2.19
2023-03-16T02:55:07.614Z,2.19
2023-03-16T02:56:09.117Z,2.18
2023-03-16T02:57:08.383Z,2.19
2023-03-16T02:58:07.736Z,2.20
2023-03-16T02:59:08.124Z,2.20
2023-03-16T03:00:08.528Z,2.23
2023-03-16T03:01:08.923Z,2.26
2023-03-16T03:02:10.842Z,2.23
2023-03-16T03:03:09.818Z,2.22
2023-03-16T03:04:08.003Z,2.22
2023-03-16T03:05:08.399Z,2.22
2023-03-16T03:06:08.714Z,2.23
2023-03-16T03:07:09.207Z,2.22
2023-03-16T03:08:08.562Z,2.19
2023-03-16T03:09:07.902Z,2.19
2023-03-16T03:10:09.300Z,2.22
2023-03-16T03:11:09.705Z,2.23
2023-03-16T03:12:08.314Z,2.23
2023-03-16T03:13:08.740Z,2.20
2023-03-16T03:14:09.094Z,2.19
2023-03-16T03:15:08.473Z,2.14
2023-03-16T03:16:07.977Z,2.11
2023-03-16T03:17:08.204Z,2.11
2023-03-16T03:18:09.645Z,2.12
2023-03-16T03:19:08.244Z,2.11
2023-03-16T03:20:09.703Z,2.09
2023-03-16T03:21:10.112Z,2.09
2023-03-16T03:22:08.431Z,2.11
2023-03-16T03:23:08.824Z,2.12
2023-03-16T03:24:08.207Z,2.12
2023-03-16T03:25:09.545Z,2.11
2023-03-16T03:26:09.022Z,2.11
2023-03-16T03:27:09.439Z,2.08
2023-03-16T03:28:08.797Z,2.08
2023-03-16T03:29:08.188Z,2.07
2023-03-16T03:30:09.404Z,2.07
2023-03-16T03:31:09.066Z,2.07
2023-03-16T03:32:08.414Z,2.09
2023-03-16T03:33:09.950Z,2.07
2023-03-16T03:34:08.240Z,2.07
2023-03-16T03:35:08.615Z,2.07
2023-03-16T03:36:08.185Z,2.05
2023-03-16T03:37:08.425Z,2.08
2023-03-16T03:38:09.833Z,2.08
2023-03-16T03:39:08.236Z,2.07
2023-03-16T03:40:09.584Z,2.08
2023-03-16T03:41:09.155Z,2.04
2023-03-16T03:42:09.375Z,2.05
2023-03-16T03:43:08.854Z,2.04
2023-03-16T03:44:08.210Z,2.02
2023-03-16T03:45:08.645Z,2.02
2023-03-16T03:46:08.199Z,2.01
2023-03-16T03:47:09.660Z,1.98
2023-03-16T03:48:07.798Z,1.93
2023-03-16T03:49:09.285Z,2.01
2023-03-16T03:50:08.664Z,1.92
2023-03-16T03:51:09.095Z,1.90
2023-03-16T03:52:09.553Z,1.89
2023-03-16T03:53:08.994Z,1.89
2023-03-16T03:54:09.320Z,1.88
2023-03-16T03:55:09.696Z,1.86
2023-03-16T03:56:08.077Z,1.83
2023-03-16T03:57:09.528Z,1.85
2023-03-16T03:58:07.994Z,1.85
2023-03-16T03:59:08.529Z,1.86
2023-03-16T04:00:08.854Z,1.85
2023-03-16T04:01:09.329Z,1.79
2023-03-16T04:02:08.775Z,1.75
2023-03-16T04:03:12.460Z,1.75
2023-03-16T04:04:07.506Z,1.77
2023-03-16T04:05:08.003Z,1.79
2023-03-16T04:06:11.524Z,1.79
2023-03-16T04:07:08.860Z,1.77
2023-03-16T04:08:09.196Z,1.81
2023-03-16T04:09:09.780Z,1.79
2023-03-16T04:10:09.228Z,1.79
2023-03-16T04:11:08.593Z,1.77
2023-03-16T04:12:09.073Z,1.77
2023-03-16T04:13:08.472Z,1.81
2023-03-16T04:14:08.957Z,1.82
2023-03-16T04:15:08.351Z,1.85
2023-03-16T04:16:07.822Z,1.85
2023-03-16T04:17:08.229Z,1.83
2023-03-16T04:18:07.662Z,1.83
2023-03-16T04:19:08.121Z,1.83
2023-03-16T04:20:09.567Z,1.86
2023-03-16T04:21:07.987Z,1.82
2023-03-16T04:22:08.427Z,1.81
2023-03-16T04:23:09.923Z,1.83
2023-03-16T04:24:08.264Z,1.82
2023-03-16T04:25:10.371Z,1.85
2023-03-16T04:26:08.113Z,1.89
2023-03-16T04:27:08.556Z,1.90
2023-03-16T04:28:07.943Z,1.93
2023-03-16T04:29:09.434Z,1.95
2023-03-16T04:30:07.809Z,1.93
2023-03-16T04:31:09.903Z,1.95
2023-03-16T04:32:06.622Z,1.95
2023-03-16T04:33:09.221Z,1.93
2023-03-16T04:34:09.633Z,1.95
2023-03-16T04:35:08.945Z,1.95
2023-03-16T04:36:08.492Z,1.93
2023-03-16T04:37:07.930Z,1.93
2023-03-16T04:38:08.290Z,1.95
2023-03-16T04:39:08.736Z,1.95
2023-03-16T04:40:10.719Z,1.98
2023-03-16T04:41:09.546Z,1.93
2023-03-16T04:42:07.840Z,1.95
2023-03-16T04:43:09.353Z,1.98
2023-03-16T04:44:09.661Z,2.00
2023-03-16T04:45:09.064Z,2.02
2023-03-16T04:46:10.559Z,2.02
2023-03-16T04:47:08.952Z,2.00
2023-03-16T04:48:09.391Z,2.01
2023-03-16T04:49:08.780Z,1.98
2023-03-16T04:50:08.149Z,1.95
2023-03-16T04:51:09.572Z,1.98
2023-03-16T04:52:08.959Z,2.00
2023-03-16T04:53:09.465Z,1.98
2023-03-16T04:54:08.923Z,2.00
2023-03-16T04:55:09.266Z,2.01
2023-03-16T04:56:09.614Z,2.01
2023-03-16T04:57:09.092Z,2.04
2023-03-16T04:58:09.521Z,2.04
2023-03-16T04:59:08.926Z,2.08
2023-03-16T05:00:08.351Z,2.08
2023-03-16T05:01:09.748Z,2.07
2023-03-16T05:02:09.079Z,2.05
2023-03-16T05:03:09.618Z,2.05
2023-03-16T05:04:13.146Z,2.07
2023-03-16T05:05:07.363Z,2.07
2023-03-16T05:06:09.765Z,2.07
2023-03-16T05:07:08.244Z,2.07
2023-03-16T05:08:08.660Z,2.05
2023-03-16T05:09:08.069Z,2.05
2023-03-16T05:10:08.506Z,2.08
2023-03-16T05:11:08.899Z,2.09
2023-03-16T05:12:08.317Z,2.08
2023-03-16T05:13:08.729Z,2.08
2023-03-16T05:14:06.026Z,2.09
2023-03-16T05:15:06.458Z,2.14
2023-03-16T05:16:06.404Z,2.14
2023-03-16T05:17:06.297Z,2.15
2023-03-16T05:18:06.696Z,2.14
2023-03-16T05:19:06.067Z,2.14
2023-03-16T05:20:06.525Z,2.19
2023-03-16T05:21:05.944Z,2.19
2023-03-16T05:22:06.420Z,2.20
2023-03-16T05:23:05.789Z,2.22
2023-03-16T05:24:09.351Z,2.25
2023-03-16T05:25:07.722Z,2.23
2023-03-16T05:26:08.222Z,2.23
2023-03-16T05:27:06.539Z,2.26
2023-03-16T05:28:06.805Z,2.25
2023-03-16T05:29:06.350Z,2.25
2023-03-16T05:30:05.784Z,2.25
2023-03-16T05:31:06.355Z,2.26
2023-03-16T05:32:05.599Z,2.27
2023-03-16T05:33:08.197Z,2.26
2023-03-16T05:34:07.414Z,2.26
2023-03-16T05:35:05.888Z,2.26
2023-03-16T05:36:07.280Z,2.23
2023-03-16T05:37:05.696Z,2.22
2023-03-16T05:38:07.091Z,2.23
2023-03-16T05:39:07.731Z,2.25
2023-03-16T05:40:06.023Z,2.25
2023-03-16T05:41:06.104Z,2.25
2023-03-16T05:42:05.836Z,2.22
2023-03-16T05:43:06.261Z,2.23
2023-03-16T05:44:05.682Z,2.26
2023-03-16T05:45:06.421Z,2.27
2023-03-16T05:46:05.508Z,2.30
2023-03-16T05:47:07.042Z,2.27
2023-03-16T05:48:06.330Z,2.25
2023-03-16T05:49:05.726Z,2.27
2023-03-16T05:50:06.126Z,2.30
2023-03-16T05:51:06.845Z,2.32
2023-03-16T05:52:05.983Z,2.32
2023-03-16T05:53:05.367Z,2.32
2023-03-16T05:54:05.818Z,2.36
2023-03-16T05:55:05.186Z,2.37
2023-03-16T05:56:05.628Z,2.40
2023-03-16T05:57:06.425Z,2.40
2023-03-16T05:58:05.943Z,2.38
2023-03-16T05:59:05.876Z,2.36
2023-03-16T06:00:05.281Z,2.36
2023-03-16T06:01:05.698Z,2.37
2023-03-16T06:02:06.148Z,2.36
2023-03-16T06:03:07.428Z,2.33
2023-03-16T06:04:06.027Z,2.36
2023-03-16T06:05:05.311Z,2.36
2023-03-16T06:06:05.746Z,2.38
2023-03-16T06:07:05.117Z,2.38
2023-03-16T06:08:05.560Z,2.38
2023-03-16T06:09:06.554Z,2.41
2023-03-16T06:10:06.286Z,2.38
2023-03-16T06:11:05.751Z,2.40
2023-03-16T06:12:05.133Z,2.38
2023-03-16T06:13:05.597Z,2.40
2023-03-16T06:14:06.087Z,2.38
2023-03-16T06:15:06.565Z,2.38
2023-03-16T06:16:05.821Z,2.37
2023-03-16T06:17:05.164Z,2.38
2023-03-16T06:18:06.535Z,2.38
2023-03-16T06:19:04.935Z,2.43
2023-03-16T06:20:05.334Z,2.44
2023-03-16T06:21:08.008Z,2.43
2023-03-16T06:22:05.196Z,2.41
2023-03-16T06:23:05.552Z,2.41
2023-03-16T06:24:04.932Z,2.44
2023-03-16T06:25:05.344Z,2.44
2023-03-16T06:26:05.771Z,2.45
2023-03-16T06:27:06.473Z,2.45
2023-03-16T06:28:05.557Z,2.47
2023-03-16T06:29:05.896Z,2.45
2023-03-16T06:30:05.325Z,2.44
2023-03-16T06:31:06.725Z,2.47
2023-03-16T06:32:05.107Z,2.48
2023-03-16T06:33:08.345Z,2.47
2023-03-16T06:34:04.869Z,2.48
2023-03-16T06:35:05.291Z,2.53
2023-03-16T06:36:05.769Z,2.53
2023-03-16T06:37:05.063Z,2.53
2023-03-16T06:38:05.496Z,2.56
2023-03-16T06:39:06.609Z,2.56
2023-03-16T06:40:05.280Z,2.56
2023-03-16T06:41:04.614Z,2.55
2023-03-16T06:42:05.042Z,2.58
2023-03-16T06:43:05.455Z,2.59
2023-03-16T06:44:05.794Z,2.62
2023-03-16T06:45:06.371Z,2.63
2023-03-16T06:46:04.674Z,2.62
2023-03-16T06:47:05.040Z,2.62
2023-03-16T06:48:05.434Z,2.63
2023-03-16T06:49:04.802Z,2.65
2023-03-16T06:50:06.159Z,2.65
2023-03-16T06:51:06.354Z,2.69
2023-03-16T06:52:04.966Z,2.71
2023-03-16T06:53:05.427Z,2.69
2023-03-16T06:54:04.831Z,2.71
2023-03-16T06:55:05.236Z,2.74
2023-03-16T06:56:04.599Z,2.73
2023-03-16T06:57:06.449Z,2.71
2023-03-16T06:58:04.426Z,2.77
2023-03-16T06:59:04.816Z,2.81
2023-03-16T07:00:05.250Z,2.84
2023-03-16T07:01:04.710Z,2.87
2023-03-16T07:02:05.080Z,2.84
2023-03-16T07:03:06.909Z,2.86
2023-03-16T07:04:04.947Z,2.87
2023-03-16T07:05:05.351Z,2.86
2023-03-16T07:06:04.744Z,2.86
2023-03-16T07:07:05.172Z,2.89
2023-03-16T07:08:04.558Z,2.90
2023-03-16T07:09:07.673Z,2.92
2023-03-16T07:10:04.344Z,2.94
2023-03-16T07:11:05.737Z,2.97
2023-03-16T07:12:06.146Z,2.98
2023-03-16T07:13:04.566Z,2.98
2023-03-16T07:14:04.953Z,2.95
2023-03-16T07:15:04.385Z,2.99
2023-03-16T07:16:04.765Z,2.99
2023-03-16T07:17:05.290Z,3.01
2023-03-16T07:18:04.491Z,3.07
2023-03-16T07:19:04.940Z,3.04
2023-03-16T07:20:04.301Z,3.05
2023-03-16T07:21:06.420Z,3.04
2023-03-16T07:22:05.170Z,3.07
2023-03-16T07:23:04.484Z,3.07
2023-03-16T07:24:04.871Z,3.10
2023-03-16T07:25:04.276Z,3.10
2023-03-16T07:26:04.650Z,3.12
2023-03-16T07:27:04.100Z,3.12
2023-03-16T07:28:05.401Z,3.08
2023-03-16T07:29:04.861Z,3.05
2023-03-16T07:30:04.191Z,3.08
2023-03-16T07:31:04.618Z,3.10
2023-03-16T07:32:04.049Z,3.15
2023-03-16T07:33:06.441Z,3.19
2023-03-16T07:34:04.748Z,3.20
2023-03-16T07:35:04.126Z,3.22
2023-03-16T07:36:04.587Z,3.26
2023-03-16T07:37:04.855Z,3.26
2023-03-16T07:38:04.285Z,3.30
2023-03-16T07:39:06.465Z,3.33
2023-03-16T07:40:04.051Z,3.34
2023-03-16T07:41:04.448Z,3.41
2023-03-16T07:42:03.869Z,3.44
2023-03-16T07:43:04.260Z,3.50
2023-03-16T07:44:04.641Z,3.46
2023-03-16T07:45:04.319Z,3.57
2023-03-16T07:46:05.499Z,3.57
2023-03-16T07:47:04.783Z,3.64
2023-03-16T07:48:04.139Z,3.63
2023-03-16T07:49:04.509Z,3.67
2023-03-16T07:50:03.869Z,3.72
2023-03-16T07:51:04.290Z,3.72
2023-03-16T07:52:04.704Z,3.78
2023-03-16T07:53:04.964Z,3.81
2023-03-16T07:54:04.424Z,3.84
2023-03-16T07:55:03.759Z,3.89
2023-03-16T07:56:04.179Z,3.90
2023-03-16T07:57:07.065Z,3.96
2023-03-16T07:58:03.926Z,3.99
2023-03-16T07:59:04.331Z,4.04
2023-03-16T08:00:03.687Z,4.06
2023-03-16T08:01:04.050Z,4.10
2023-03-16T08:02:05.418Z,4.16
2023-03-16T08:03:03.835Z,4.17
2023-03-16T08:04:04.252Z,4.24
2023-03-16T08:05:03.549Z,4.24
2023-03-16T08:06:04.906Z,4.26
2023-03-16T08:07:04.418Z,4.29
2023-03-16T08:08:03.733Z,4.31
2023-03-16T08:09:04.144Z,4.32
2023-03-16T08:10:04.477Z,4.36
2023-03-16T08:11:03.829Z,4.36
2023-03-16T08:12:04.235Z,4.36
2023-03-16T08:13:03.616Z,4.35
2023-03-16T08:14:03.997Z,4.36
2023-03-16T08:15:08.131Z,4.36
2023-03-16T08:16:03.821Z,4.36
2023-03-16T08:17:04.162Z,4.35
2023-03-16T08:18:05.513Z,4.39
2023-03-16T08:19:04.872Z,4.44
2023-03-16T08:20:04.301Z,4.46
2023-03-16T08:21:03.731Z,4.43
2023-03-16T08:22:05.063Z,4.39
2023-03-16T08:23:03.478Z,4.43
2023-03-16T08:24:03.882Z,4.46
2023-03-16T08:25:04.270Z,4.43
2023-03-16T08:26:03.610Z,4.46
2023-03-16T08:27:04.050Z,4.50
2023-03-16T08:28:03.394Z,4.54
2023-03-16T08:29:03.800Z,4.57
2023-03-16T08:30:05.118Z,4.62
2023-03-16T08:31:04.475Z,4.65
2023-03-16T08:32:03.869Z,4.69
2023-03-16T08:33:06.145Z,4.71
2023-03-16T08:34:03.593Z,4.72
2023-03-16T08:35:03.984Z,4.75
2023-03-16T08:36:03.359Z,4.83
2023-03-16T08:37:03.674Z,4.87
2023-03-16T08:38:04.102Z,4.91
2023-03-16T08:39:07.227Z,4.96
2023-03-16T08:40:04.752Z,4.96
2023-03-16T08:41:04.098Z,4.97
2023-03-16T08:42:04.438Z,4.97
2023-03-16T08:43:04.818Z,4.97
2023-03-16T08:44:03.384Z,4.96
2023-03-16T08:45:03.566Z,5.01
2023-03-16T08:46:04.932Z,5.02
2023-03-16T08:47:03.287Z,5.05
2023-03-16T08:48:03.663Z,5.08
2023-03-16T08:49:02.981Z,5.11
2023-03-16T08:50:03.697Z,5.17
2023-03-16T08:51:04.675Z,5.22
2023-03-16T08:52:03.058Z,5.23
2023-03-16T08:53:03.448Z,5.24
2023-03-16T08:54:03.828Z,5.27
2023-03-16T08:55:04.177Z,5.30
2023-03-16T08:56:03.686Z,5.32
2023-03-16T08:57:03.861Z,5.35
2023-03-16T08:58:04.158Z,5.40
2023-03-16T08:59:03.556Z,5.40
2023-03-16T09:00:02.861Z,5.45
2023-03-16T09:01:03.246Z,5.45
2023-03-16T09:02:03.690Z,5.45
2023-03-16T09:03:02.938Z,5.48
2023-03-16T09:04:03.365Z,5.52
2023-03-16T09:05:03.658Z,5.55
2023-03-16T09:06:02.960Z,5.59
2023-03-16T09:07:09.181Z,5.62
2023-03-16T09:08:06.931Z,5.73
2023-03-16T09:09:03.009Z,5.77
2023-03-16T09:10:03.389Z,5.80
2023-03-16T09:11:02.690Z,5.83
2023-03-16T09:12:03.039Z,5.80
2023-03-16T09:13:03.449Z,5.78
2023-03-16T09:14:02.769Z,5.73
2023-03-16T09:15:03.154Z,5.69
2023-03-16T09:16:03.548Z,5.69
2023-03-16T09:17:04.255Z,5.73
2023-03-16T09:18:03.160Z,5.70
2023-03-16T09:19:03.542Z,5.73
2023-03-16T09:20:19.285Z,5.73
2023-03-16T09:21:04.223Z,5.73
2023-03-16T09:22:02.559Z,5.73
2023-03-16T09:23:02.951Z,5.73
2023-03-16T09:24:04.266Z,5.70
2023-03-16T09:25:02.738Z,5.73
2023-03-16T09:26:03.960Z,5.77
2023-03-16T09:27:03.444Z,5.81
2023-03-16T09:28:02.687Z,5.84
2023-03-16T09:29:03.984Z,5.87
2023-03-16T09:30:03.422Z,5.88
2023-03-16T09:31:03.739Z,5.95
2023-03-16T09:32:04.011Z,5.98
2023-03-16T09:33:03.432Z,6.01
2023-03-16T09:34:03.705Z,6.02
2023-03-16T09:35:03.114Z,6.03
2023-03-16T09:36:02.563Z,6.08
2023-03-16T09:37:02.817Z,6.11
2023-03-16T09:38:05.995Z,6.16
2023-03-16T09:39:02.481Z,6.17
2023-03-16T09:40:10.304Z,6.21
2023-03-16T09:41:04.160Z,6.24
2023-03-16T09:42:02.427Z,6.30
2023-03-16T09:43:02.795Z,6.33
2023-03-16T09:44:03.112Z,6.36
2023-03-16T09:45:03.348Z,6.38
2023-03-16T09:46:02.788Z,6.43
2023-03-16T09:47:03.107Z,6.48
2023-03-16T09:48:02.340Z,6.51
2023-03-16T09:49:02.680Z,6.51
2023-03-16T09:50:03.974Z,6.54
2023-03-16T09:51:02.451Z,6.54
2023-03-16T09:52:02.633Z,6.54
2023-03-16T09:53:03.244Z,6.51
2023-03-16T09:54:02.261Z,6.54
2023-03-16T09:55:02.566Z,6.58
2023-03-16T09:56:03.864Z,6.63
2023-03-16T09:57:03.101Z,6.69
2023-03-16T09:58:02.464Z,6.79
2023-03-16T09:59:02.917Z,6.81
2023-03-16T10:00:02.060Z,6.87
2023-03-16T10:01:02.447Z,6.89
2023-03-16T10:02:03.651Z,6.93
2023-03-16T10:03:01.974Z,6.89
2023-03-16T10:04:02.434Z,6.93
2023-03-16T10:05:02.639Z,6.93
2023-03-16T10:06:02.944Z,6.94
2023-03-16T10:07:03.193Z,6.94
2023-03-16T10:08:02.553Z,6.97
2023-03-16T10:09:03.829Z,6.99
2023-03-16T10:10:03.140Z,6.97
2023-03-16T10:11:02.536Z,7.00
2023-03-16T10:12:03.784Z,7.04
2023-03-16T10:13:38.099Z,7.07
2023-03-16T10:14:03.391Z,7.08
2023-03-16T10:15:03.736Z,7.08
2023-03-16T10:16:03.134Z,7.08
2023-03-16T10:17:02.393Z,7.09
2023-03-16T10:18:02.659Z,7.12
2023-03-16T10:19:01.934Z,7.08
2023-03-16T10:20:03.219Z,7.08
2023-03-16T10:21:02.579Z,7.08
2023-03-16T10:22:01.889Z,7.07
2023-03-16T10:23:02.220Z,7.07
2023-03-16T10:24:02.469Z,7.08
2023-03-16T10:25:02.716Z,7.08
2023-03-16T10:26:02.089Z,7.08
2023-03-16T10:27:03.359Z,7.11
2023-03-16T10:28:02.722Z,7.11
2023-03-16T10:29:02.979Z,7.05
2023-03-16T10:30:03.245Z,6.97
2023-03-16T10:31:02.586Z,6.99
2023-03-16T10:32:01.935Z,7.00
2023-03-16T10:33:03.172Z,7.00
2023-03-16T10:34:02.547Z,7.05
2023-03-16T10:35:02.733Z,7.04
2023-03-16T10:36:03.036Z,7.04
2023-03-16T10:37:02.418Z,7.08
2023-03-16T10:38:02.637Z,7.09
2023-03-16T10:39:02.012Z,7.09
2023-03-16T10:40:03.581Z,7.09
2023-03-16T10:41:02.565Z,7.07
2023-03-16T10:42:02.878Z,7.09
2023-03-16T10:43:03.193Z,7.11
2023-03-16T10:44:01.508Z,7.15
2023-03-16T10:45:03.187Z,7.18
2023-03-16T10:46:02.491Z,7.19
2023-03-16T10:47:01.459Z,7.19
2023-03-16T10:48:02.701Z,7.26
2023-03-16T10:49:03.026Z,7.27
2023-03-16T10:50:03.379Z,7.32
2023-03-16T10:51:02.642Z,7.37
2023-03-16T10:52:02.127Z,7.42
2023-03-16T10:53:03.320Z,7.48
2023-03-16T10:54:01.580Z,7.54
2023-03-16T10:55:02.853Z,7.52
2023-03-16T10:56:02.259Z,7.51
2023-03-16T10:57:02.424Z,7.54
2023-03-16T10:58:02.127Z,7.58
2023-03-16T10:59:03.061Z,7.62
2023-03-16T11:00:02.356Z,7.69
2023-03-16T11:01:02.645Z,7.76
2023-03-16T11:02:02.925Z,7.85
2023-03-16T11:03:01.271Z,7.89
2023-03-16T11:04:01.577Z,7.96
2023-03-16T11:05:01.927Z,8.03
2023-03-16T11:06:02.277Z,8.10
2023-03-16T11:07:01.478Z,8.10
2023-03-16T11:08:02.719Z,8.14
2023-03-16T11:09:03.108Z,8.22
2023-03-16T11:10:02.337Z,8.28
2023-03-16T11:11:01.632Z,8.31
2023-03-16T11:12:01.962Z,8.37
2023-03-16T11:13:02.498Z,8.47
2023-03-16T11:14:02.498Z,8.57
2023-03-16T11:15:02.838Z,8.63
2023-03-16T11:16:02.128Z,8.65
2023-03-16T11:17:01.447Z,8.68
2023-03-16T11:18:01.754Z,8.67
2023-03-16T11:19:01.017Z,8.70
2023-03-16T11:20:01.339Z,8.78
2023-03-16T11:21:01.989Z,8.83
2023-03-16T11:22:02.873Z,8.91
2023-03-16T11:23:01.279Z,8.89
2023-03-16T11:24:01.519Z,8.97
2023-03-16T11:25:01.795Z,9.04
2023-03-16T11:26:01.068Z,9.10
2023-03-16T11:27:01.417Z,9.13
2023-03-16T11:28:01.770Z,9.10
2023-03-16T11:29:00.948Z,9.06
2023-03-16T11:30:02.223Z,9.06
2023-03-16T11:31:01.561Z,9.01
2023-03-16T11:32:01.906Z,9.03
2023-03-16T11:33:02.232Z,9.00
2023-03-16T11:34:01.477Z,9.04
2023-03-16T11:35:01.718Z,9.03
2023-03-16T11:36:01.003Z,9.04
2023-03-16T11:37:02.251Z,9.16
2023-03-16T11:38:02.662Z,9.30
2023-03-16T11:39:00.847Z,9.42
2023-03-16T11:40:02.101Z,9.44
2023-03-16T11:41:02.387Z,9.65
2023-03-16T11:42:01.741Z,9.86
2023-03-16T11:43:00.990Z,10.07
2023-03-16T11:44:02.310Z,10.26
2023-03-16T11:45:01.551Z,10.36
2023-03-16T11:46:00.852Z,10.43
2023-03-16T11:47:01.031Z,10.36
2023-03-16T11:48:01.310Z,10.43
2023-03-16T11:49:01.623Z,10.52
2023-03-16T11:50:01.760Z,10.60
2023-03-16T11:51:02.011Z,10.69
2023-03-16T11:52:02.310Z,10.73
2023-03-16T11:53:00.562Z,10.75
2023-03-16T11:54:01.816Z,10.76
2023-03-16T11:55:01.150Z,10.76
2023-03-16T11:56:01.420Z,10.81
2023-03-16T11:57:01.590Z,10.80
2023-03-16T11:58:01.856Z,10.76
2023-03-16T11:59:02.122Z,10.73
2023-03-16T12:00:02.554Z,10.76
2023-03-16T12:01:01.568Z,10.65
2023-03-16T12:02:01.902Z,10.65
2023-03-16T12:03:01.249Z,10.55
2023-03-16T12:04:02.545Z,10.65
2023-03-16T12:05:01.628Z,10.80
2023-03-16T12:06:07.802Z,10.98
2023-03-16T12:07:02.193Z,11.09
2023-03-16T12:08:00.410Z,11.12
2023-03-16T12:09:00.648Z,11.19
2023-03-16T12:10:01.843Z,11.13
2023-03-16T12:11:01.168Z,11.17
2023-03-16T12:12:00.373Z,11.31
2023-03-16T12:13:01.618Z,11.46
2023-03-16T12:14:01.914Z,11.54
2023-03-16T12:15:02.157Z,11.59
2023-03-16T12:16:01.489Z,11.56
2023-03-16T12:17:02.902Z,11.59
2023-03-16T12:18:00.917Z,11.59
2023-03-16T12:19:02.239Z,11.56
2023-03-16T12:20:00.380Z,11.60
2023-03-16T12:21:00.671Z,11.59
2023-03-16T12:22:00.910Z,11.59
2023-03-16T12:23:02.061Z,11.59
2023-03-16T12:24:01.321Z,11.53
2023-03-16T12:25:01.550Z,11.48
2023-03-16T12:26:00.904Z,11.48
2023-03-16T12:27:00.120Z,11.51
2023-03-16T12:28:00.383Z,11.60
2023-03-16T12:29:01.640Z,11.66
2023-03-16T12:30:00.884Z,11.60
2023-03-16T12:31:00.146Z,11.60
2023-03-16T12:32:00.389Z,11.60
2023-03-16T12:33:01.682Z,11.56
2023-03-16T12:34:01.816Z,11.31
2023-03-16T12:35:00.115Z,11.33
2023-03-16T12:36:00.432Z,11.51
2023-03-16T12:37:00.607Z,11.60
2023-03-16T12:38:01.816Z,11.69
2023-03-16T12:39:01.020Z,11.70
2023-03-16T12:40:00.385Z,11.78
2023-03-16T12:41:00.520Z,11.75
2023-03-16T12:42:00.772Z,11.79
2023-03-16T12:43:00.041Z,11.87
2023-03-16T12:44:01.227Z,11.88
2023-03-16T12:45:01.416Z,11.81
2023-03-16T12:46:01.737Z,11.94
2023-03-16T12:47:00.846Z,12.05
2023-03-16T12:48:01.099Z,12.04
2023-03-16T12:49:00.470Z,11.82
2023-03-16T12:50:00.653Z,11.66
2023-03-16T12:50:59.823Z,11.48
2023-03-16T12:52:00.106Z,11.33
2023-03-16T12:53:01.315Z,11.24
2023-03-16T12:54:01.514Z,11.12
2023-03-16T12:54:59.760Z,11.11
2023-03-16T12:56:00.954Z,11.12
2023-03-16T12:57:01.187Z,11.11
2023-03-16T12:58:01.506Z,11.12
2023-03-16T12:59:00.626Z,11.19
2023-03-16T12:59:59.924Z,11.21
2023-03-16T13:01:00.359Z,11.21
2023-03-16T13:02:00.470Z,11.13
2023-03-16T13:03:00.618Z,11.02
2023-03-16T13:04:00.920Z,10.94
2023-03-16T13:05:00.194Z,10.87
2023-03-16T13:06:01.398Z,10.87
2023-03-16T13:06:59.738Z,10.86
2023-03-16T13:08:00.888Z,10.91
2023-03-16T13:09:00.198Z,10.98
2023-03-16T13:10:00.477Z,10.93
2023-03-16T13:10:59.724Z,10.98
2023-03-16T13:11:59.935Z,10.98
2023-03-16T13:13:01.153Z,11.02
2023-03-16T13:14:01.364Z,11.01
2023-03-16T13:15:00.615Z,10.94